sensor_id;sensor_type;location;lat;lon;timestamp;temperature;humidity
9790;DHT22;4934;50.852;8.098;2023-09-12T00:00:30;17.00;99.90
9790;DHT22;4934;50.852;8.098;2023-09-12T00:02:56;17.00;99.90
9790;DHT22;4934;50.852;8.098;2023-09-12T00:05:22;17.00;99.90
9790;DHT22;4934;50.852;8.098;2023-09-12T00:07:47;17.10;99.90
9790;DHT22;4934;50.852;8.098;2023-09-12T00:10:13;17.10;99.90
9790;DHT22;4934;50.852;8.098;2023-09-12T00:12:38;17.10;99.90
9790;DHT22;4934;50.852;8.098;2023-09-12T00:15:04;17.10;99.90
9790;DHT22;4934;50.852;8.098;2023-09-12T00:17:30;17.10;99.90
9790;DHT22;4934;50.852;8.098;2023-09-12T00:19:55;17.00;99.90
9790;DHT22;4934;50.852;8.098;2023-09-12T00:22:21;17.00;99.90
9790;DHT22;4934;50.852;8.098;2023-09-12T00:24:46;17.10;99.90
9790;DHT22;4934;50.852;8.098;2023-09-12T00:27:12;17.10;99.90
9790;DHT22;4934;50.852;8.098;2023-09-12T00:29:37;17.10;99.90
9790;DHT22;4934;50.852;8.098;2023-09-12T00:32:03;17.10;99.90
9790;DHT22;4934;50.852;8.098;2023-09-12T00:34:29;17.10;99.90
9790;DHT22;4934;50.852;8.098;2023-09-12T00:36:54;17.20;99.90
9790;DHT22;4934;50.852;8.098;2023-09-12T00:39:20;17.20;99.90
9790;DHT22;4934;50.852;8.098;2023-09-12T00:41:46;17.10;99.90
9790;DHT22;4934;50.852;8.098;2023-09-12T00:44:11;17.20;99.90
9790;DHT22;4934;50.852;8.098;2023-09-12T00:46:37;17.30;99.90
9790;DHT22;4934;50.852;8.098;2023-09-12T00:49:04;17.30;99.90
9790;DHT22;4934;50.852;8.098;2023-09-12T00:51:31;17.20;99.90
9790;DHT22;4934;50.852;8.098;2023-09-12T00:53:57;17.20;99.90
9790;DHT22;4934;50.852;8.098;2023-09-12T00:56:23;17.20;99.90
9790;DHT22;4934;50.852;8.098;2023-09-12T00:58:49;17.10;99.90
9790;DHT22;4934;50.852;8.098;2023-09-12T01:01:18;17.20;99.90
9790;DHT22;4934;50.852;8.098;2023-09-12T01:03:44;17.30;99.90
9790;DHT22;4934;50.852;8.098;2023-09-12T01:06:09;17.30;99.90
9790;DHT22;4934;50.852;8.098;2023-09-12T01:08:36;17.20;99.90
9790;DHT22;4934;50.852;8.098;2023-09-12T01:11:05;17.20;99.90
9790;DHT22;4934;50.852;8.098;2023-09-12T01:13:31;17.30;99.90
9790;DHT22;4934;50.852;8.098;2023-09-12T01:15:56;17.30;99.90
9790;DHT22;4934;50.852;8.098;2023-09-12T01:18:22;17.30;99.90
9790;DHT22;4934;50.852;8.098;2023-09-12T01:26:50;17.20;99.90
9790;DHT22;4934;50.852;8.098;2023-09-12T01:29:19;17.20;99.90
9790;DHT22;4934;50.852;8.098;2023-09-12T01:31:46;17.30;99.90
9790;DHT22;4934;50.852;8.098;2023-09-12T01:34:12;17.40;99.90
9790;DHT22;4934;50.852;8.098;2023-09-12T01:36:38;17.40;99.90
9790;DHT22;4934;50.852;8.098;2023-09-12T01:39:04;17.30;99.90
9790;DHT22;4934;50.852;8.098;2023-09-12T01:41:31;17.20;99.90
9790;DHT22;4934;50.852;8.098;2023-09-12T01:43:57;17.30;99.90
9790;DHT22;4934;50.852;8.098;2023-09-12T01:46:25;17.30;99.90
9790;DHT22;4934;50.852;8.098;2023-09-12T01:48:52;17.30;99.90
9790;DHT22;4934;50.852;8.098;2023-09-12T01:51:19;17.30;99.90
9790;DHT22;4934;50.852;8.098;2023-09-12T01:53:45;17.20;99.90
9790;DHT22;4934;50.852;8.098;2023-09-12T01:56:13;17.20;99.90
9790;DHT22;4934;50.852;8.098;2023-09-12T01:58:39;17.30;99.90
9790;DHT22;4934;50.852;8.098;2023-09-12T02:01:05;17.20;99.90
9790;DHT22;4934;50.852;8.098;2023-09-12T02:03:30;17.20;99.90
9790;DHT22;4934;50.852;8.098;2023-09-12T02:05:56;17.10;99.90
9790;DHT22;4934;50.852;8.098;2023-09-12T02:08:22;17.10;99.90
9790;DHT22;4934;50.852;8.098;2023-09-12T02:10:47;17.10;99.90
9790;DHT22;4934;50.852;8.098;2023-09-12T02:13:13;17.10;99.90
9790;DHT22;4934;50.852;8.098;2023-09-12T02:15:39;17.20;99.90
9790;DHT22;4934;50.852;8.098;2023-09-12T02:18:04;17.20;99.90
9790;DHT22;4934;50.852;8.098;2023-09-12T02:20:32;17.20;99.90
9790;DHT22;4934;50.852;8.098;2023-09-12T02:22:58;17.20;99.90
9790;DHT22;4934;50.852;8.098;2023-09-12T02:25:23;17.20;99.90
9790;DHT22;4934;50.852;8.098;2023-09-12T02:27:49;17.20;99.90
9790;DHT22;4934;50.852;8.098;2023-09-12T02:30:14;17.20;99.90
9790;DHT22;4934;50.852;8.098;2023-09-12T02:32:42;17.20;99.90
9790;DHT22;4934;50.852;8.098;2023-09-12T02:35:07;17.20;99.90
9790;DHT22;4934;50.852;8.098;2023-09-12T02:37:33;17.30;99.90
9790;DHT22;4934;50.852;8.098;2023-09-12T02:39:58;17.30;99.90
9790;DHT22;4934;50.852;8.098;2023-09-12T02:42:24;17.30;99.90
9790;DHT22;4934;50.852;8.098;2023-09-12T02:44:50;17.30;99.90
9790;DHT22;4934;50.852;8.098;2023-09-12T02:47:17;17.30;99.90
9790;DHT22;4934;50.852;8.098;2023-09-12T02:49:43;17.30;99.90
9790;DHT22;4934;50.852;8.098;2023-09-12T02:52:08;17.40;99.90
9790;DHT22;4934;50.852;8.098;2023-09-12T02:54:34;17.40;99.90
9790;DHT22;4934;50.852;8.098;2023-09-12T02:57:00;17.30;99.90
9790;DHT22;4934;50.852;8.098;2023-09-12T02:59:25;17.30;99.90
9790;DHT22;4934;50.852;8.098;2023-09-12T03:01:51;17.20;99.90
9790;DHT22;4934;50.852;8.098;2023-09-12T03:04:16;17.30;99.90
9790;DHT22;4934;50.852;8.098;2023-09-12T03:06:42;17.30;99.90
9790;DHT22;4934;50.852;8.098;2023-09-12T03:09:09;17.30;99.90
9790;DHT22;4934;50.852;8.098;2023-09-12T03:11:35;17.30;99.90
9790;DHT22;4934;50.852;8.098;2023-09-12T03:14:00;17.30;99.90
9790;DHT22;4934;50.852;8.098;2023-09-12T03:16:26;17.30;99.90
9790;DHT22;4934;50.852;8.098;2023-09-12T03:18:51;17.20;99.90
9790;DHT22;4934;50.852;8.098;2023-09-12T03:21:17;17.10;99.90
9790;DHT22;4934;50.852;8.098;2023-09-12T03:23:43;17.20;99.90
9790;DHT22;4934;50.852;8.098;2023-09-12T03:26:08;17.30;99.90
9790;DHT22;4934;50.852;8.098;2023-09-12T03:28:34;17.30;99.90
9790;DHT22;4934;50.852;8.098;2023-09-12T03:31:05;17.30;99.90
9790;DHT22;4934;50.852;8.098;2023-09-12T03:33:31;17.20;99.90
9790;DHT22;4934;50.852;8.098;2023-09-12T03:35:56;17.20;99.90
9790;DHT22;4934;50.852;8.098;2023-09-12T03:38:22;17.20;99.90
9790;DHT22;4934;50.852;8.098;2023-09-12T03:40:48;17.30;99.90
9790;DHT22;4934;50.852;8.098;2023-09-12T03:43:13;17.30;99.90
9790;DHT22;4934;50.852;8.098;2023-09-12T03:45:39;17.30;99.90
9790;DHT22;4934;50.852;8.098;2023-09-12T03:48:04;17.30;99.90
9790;DHT22;4934;50.852;8.098;2023-09-12T03:50:30;17.20;99.90
9790;DHT22;4934;50.852;8.098;2023-09-12T03:52:56;17.20;99.90
9790;DHT22;4934;50.852;8.098;2023-09-12T03:55:22;17.20;99.90
9790;DHT22;4934;50.852;8.098;2023-09-12T03:57:47;17.30;99.90
9790;DHT22;4934;50.852;8.098;2023-09-12T04:00:13;17.40;99.90
9790;DHT22;4934;50.852;8.098;2023-09-12T04:02:39;17.30;99.90
9790;DHT22;4934;50.852;8.098;2023-09-12T04:05:05;17.30;99.90
9790;DHT22;4934;50.852;8.098;2023-09-12T04:07:30;17.20;99.90
9790;DHT22;4934;50.852;8.098;2023-09-12T04:09:56;17.20;99.90
9790;DHT22;4934;50.852;8.098;2023-09-12T04:12:21;17.20;99.90
9790;DHT22;4934;50.852;8.098;2023-09-12T04:14:49;17.10;99.90
9790;DHT22;4934;50.852;8.098;2023-09-12T04:17:15;17.10;99.90
9790;DHT22;4934;50.852;8.098;2023-09-12T04:19:40;17.10;99.90
9790;DHT22;4934;50.852;8.098;2023-09-12T04:22:06;17.10;99.90
9790;DHT22;4934;50.852;8.098;2023-09-12T04:24:31;17.10;99.90
9790;DHT22;4934;50.852;8.098;2023-09-12T04:26:57;17.10;99.90
9790;DHT22;4934;50.852;8.098;2023-09-12T04:29:22;17.10;99.90
9790;DHT22;4934;50.852;8.098;2023-09-12T04:31:48;17.00;99.90
9790;DHT22;4934;50.852;8.098;2023-09-12T04:34:14;17.00;99.90
9790;DHT22;4934;50.852;8.098;2023-09-12T04:36:39;17.00;99.90
9790;DHT22;4934;50.852;8.098;2023-09-12T04:39:05;17.00;99.90
9790;DHT22;4934;50.852;8.098;2023-09-12T04:41:30;17.00;99.90
9790;DHT22;4934;50.852;8.098;2023-09-12T04:43:56;17.00;99.90
9790;DHT22;4934;50.852;8.098;2023-09-12T04:46:24;17.00;99.90
9790;DHT22;4934;50.852;8.098;2023-09-12T04:48:49;16.90;99.90
9790;DHT22;4934;50.852;8.098;2023-09-12T04:51:15;16.90;99.90
9790;DHT22;4934;50.852;8.098;2023-09-12T04:53:40;16.90;99.90
9790;DHT22;4934;50.852;8.098;2023-09-12T04:56:06;16.90;99.90
9790;DHT22;4934;50.852;8.098;2023-09-12T04:58:32;16.90;99.90
9790;DHT22;4934;50.852;8.098;2023-09-12T05:00:58;16.90;99.90
9790;DHT22;4934;50.852;8.098;2023-09-12T05:03:23;16.90;99.90
9790;DHT22;4934;50.852;8.098;2023-09-12T05:05:49;16.80;99.90
9790;DHT22;4934;50.852;8.098;2023-09-12T05:08:16;16.80;99.90
9790;DHT22;4934;50.852;8.098;2023-09-12T05:10:43;16.70;99.90
9790;DHT22;4934;50.852;8.098;2023-09-12T05:13:09;16.60;99.90
9790;DHT22;4934;50.852;8.098;2023-09-12T05:15:34;16.60;99.90
9790;DHT22;4934;50.852;8.098;2023-09-12T05:18:00;16.50;99.90
9790;DHT22;4934;50.852;8.098;2023-09-12T05:20:25;16.50;99.90
9790;DHT22;4934;50.852;8.098;2023-09-12T05:22:51;16.40;99.90
9790;DHT22;4934;50.852;8.098;2023-09-12T05:25:16;16.50;99.90
9790;DHT22;4934;50.852;8.098;2023-09-12T05:27:42;16.40;99.90
9790;DHT22;4934;50.852;8.098;2023-09-12T05:30:08;16.50;99.90
9790;DHT22;4934;50.852;8.098;2023-09-12T05:32:33;16.50;99.90
9790;DHT22;4934;50.852;8.098;2023-09-12T05:34:59;16.50;99.90
9790;DHT22;4934;50.852;8.098;2023-09-12T05:37:24;16.50;99.90
9790;DHT22;4934;50.852;8.098;2023-09-12T05:39:50;16.50;99.90
9790;DHT22;4934;50.852;8.098;2023-09-12T05:42:16;16.50;99.90
9790;DHT22;4934;50.852;8.098;2023-09-12T05:44:49;16.50;99.90
9790;DHT22;4934;50.852;8.098;2023-09-12T05:47:15;16.60;99.90
9790;DHT22;4934;50.852;8.098;2023-09-12T05:49:41;16.60;99.90
9790;DHT22;4934;50.852;8.098;2023-09-12T05:52:07;16.70;99.90
9790;DHT22;4934;50.852;8.098;2023-09-12T05:54:32;16.70;99.90
9790;DHT22;4934;50.852;8.098;2023-09-12T05:56:58;16.70;99.90
9790;DHT22;4934;50.852;8.098;2023-09-12T05:59:23;16.90;99.90
9790;DHT22;4934;50.852;8.098;2023-09-12T06:01:49;16.90;99.90
9790;DHT22;4934;50.852;8.098;2023-09-12T06:04:14;17.00;99.90
9790;DHT22;4934;50.852;8.098;2023-09-12T06:06:40;17.00;99.90
9790;DHT22;4934;50.852;8.098;2023-09-12T06:09:06;17.10;99.90
9790;DHT22;4934;50.852;8.098;2023-09-12T06:11:31;17.10;99.90
9790;DHT22;4934;50.852;8.098;2023-09-12T06:13:57;17.10;99.90
9790;DHT22;4934;50.852;8.098;2023-09-12T06:16:22;17.20;99.90
9790;DHT22;4934;50.852;8.098;2023-09-12T06:18:48;17.20;99.90
9790;DHT22;4934;50.852;8.098;2023-09-12T06:21:14;17.40;99.90
9790;DHT22;4934;50.852;8.098;2023-09-12T06:23:40;17.50;99.90
9790;DHT22;4934;50.852;8.098;2023-09-12T06:26:05;17.60;99.90
9790;DHT22;4934;50.852;8.098;2023-09-12T06:28:31;17.80;99.90
9790;DHT22;4934;50.852;8.098;2023-09-12T06:30:58;18.00;99.90
9790;DHT22;4934;50.852;8.098;2023-09-12T06:33:25;18.10;99.90
9790;DHT22;4934;50.852;8.098;2023-09-12T06:35:51;18.20;99.90
9790;DHT22;4934;50.852;8.098;2023-09-12T06:38:19;18.30;99.90
9790;DHT22;4934;50.852;8.098;2023-09-12T06:40:45;18.40;99.90
9790;DHT22;4934;50.852;8.098;2023-09-12T06:43:11;18.50;99.90
9790;DHT22;4934;50.852;8.098;2023-09-12T06:45:37;18.50;99.90
9790;DHT22;4934;50.852;8.098;2023-09-12T06:48:04;18.50;99.90
9790;DHT22;4934;50.852;8.098;2023-09-12T06:50:30;18.60;99.90
9790;DHT22;4934;50.852;8.098;2023-09-12T06:52:55;18.60;99.90
9790;DHT22;4934;50.852;8.098;2023-09-12T06:55:21;18.70;99.90
9790;DHT22;4934;50.852;8.098;2023-09-12T06:57:47;18.80;99.90
9790;DHT22;4934;50.852;8.098;2023-09-12T07:00:13;19.00;99.90
9790;DHT22;4934;50.852;8.098;2023-09-12T07:02:39;19.20;99.90
9790;DHT22;4934;50.852;8.098;2023-09-12T07:05:05;19.30;99.90
9790;DHT22;4934;50.852;8.098;2023-09-12T07:07:30;19.40;99.90
9790;DHT22;4934;50.852;8.098;2023-09-12T07:09:56;19.40;99.90
9790;DHT22;4934;50.852;8.098;2023-09-12T07:12:22;19.50;99.90
9790;DHT22;4934;50.852;8.098;2023-09-12T07:14:48;19.50;99.90
9790;DHT22;4934;50.852;8.098;2023-09-12T07:17:16;19.60;99.90
9790;DHT22;4934;50.852;8.098;2023-09-12T07:19:43;19.60;99.90
9790;DHT22;4934;50.852;8.098;2023-09-12T07:22:08;19.60;99.90
9790;DHT22;4934;50.852;8.098;2023-09-12T07:24:34;19.70;99.90
9790;DHT22;4934;50.852;8.098;2023-09-12T07:26:59;19.80;99.90
9790;DHT22;4934;50.852;8.098;2023-09-12T07:29:26;19.70;99.90
9790;DHT22;4934;50.852;8.098;2023-09-12T07:31:53;19.70;99.90
9790;DHT22;4934;50.852;8.098;2023-09-12T07:34:19;19.90;99.90
9790;DHT22;4934;50.852;8.098;2023-09-12T07:36:45;20.10;99.90
9790;DHT22;4934;50.852;8.098;2023-09-12T07:39:10;20.20;99.90
9790;DHT22;4934;50.852;8.098;2023-09-12T07:41:36;20.30;99.90
9790;DHT22;4934;50.852;8.098;2023-09-12T07:44:02;20.40;99.90
9790;DHT22;4934;50.852;8.098;2023-09-12T07:46:30;20.60;99.90
9790;DHT22;4934;50.852;8.098;2023-09-12T07:48:56;20.70;99.90
9790;DHT22;4934;50.852;8.098;2023-09-12T07:51:22;20.80;99.90
9790;DHT22;4934;50.852;8.098;2023-09-12T07:53:48;20.90;99.90
9790;DHT22;4934;50.852;8.098;2023-09-12T07:56:14;21.10;99.90
9790;DHT22;4934;50.852;8.098;2023-09-12T07:58:39;21.20;99.90
9790;DHT22;4934;50.852;8.098;2023-09-12T08:01:08;21.20;99.90
9790;DHT22;4934;50.852;8.098;2023-09-12T08:03:35;21.40;99.90
9790;DHT22;4934;50.852;8.098;2023-09-12T08:06:02;21.60;99.90
9790;DHT22;4934;50.852;8.098;2023-09-12T08:08:28;21.80;99.90
9790;DHT22;4934;50.852;8.098;2023-09-12T08:10:54;22.00;99.90
9790;DHT22;4934;50.852;8.098;2023-09-12T08:13:20;22.00;99.90
9790;DHT22;4934;50.852;8.098;2023-09-12T08:15:45;22.10;99.90
9790;DHT22;4934;50.852;8.098;2023-09-12T08:18:11;22.40;99.90
9790;DHT22;4934;50.852;8.098;2023-09-12T08:20:37;22.50;99.90
9790;DHT22;4934;50.852;8.098;2023-09-12T08:23:03;22.70;99.90
9790;DHT22;4934;50.852;8.098;2023-09-12T08:25:29;22.70;99.90
9790;DHT22;4934;50.852;8.098;2023-09-12T08:27:54;22.80;99.90
9790;DHT22;4934;50.852;8.098;2023-09-12T08:30:20;22.80;99.90
9790;DHT22;4934;50.852;8.098;2023-09-12T08:32:45;22.90;99.90
9790;DHT22;4934;50.852;8.098;2023-09-12T08:35:12;23.00;99.90
9790;DHT22;4934;50.852;8.098;2023-09-12T08:37:39;23.10;99.90
9790;DHT22;4934;50.852;8.098;2023-09-12T08:40:06;23.20;99.90
9790;DHT22;4934;50.852;8.098;2023-09-12T08:42:41;23.20;99.90
9790;DHT22;4934;50.852;8.098;2023-09-12T08:45:15;23.40;99.90
9790;DHT22;4934;50.852;8.098;2023-09-12T08:47:42;23.50;99.90
9790;DHT22;4934;50.852;8.098;2023-09-12T08:50:15;23.50;99.90
9790;DHT22;4934;50.852;8.098;2023-09-12T08:52:43;23.60;99.90
9790;DHT22;4934;50.852;8.098;2023-09-12T08:55:09;23.70;99.90
9790;DHT22;4934;50.852;8.098;2023-09-12T08:57:41;23.70;99.90
9790;DHT22;4934;50.852;8.098;2023-09-12T09:00:07;23.80;99.90
9790;DHT22;4934;50.852;8.098;2023-09-12T09:02:39;23.80;99.90
9790;DHT22;4934;50.852;8.098;2023-09-12T09:05:09;23.80;99.90
9790;DHT22;4934;50.852;8.098;2023-09-12T09:07:36;24.00;99.90
9790;DHT22;4934;50.852;8.098;2023-09-12T09:10:03;24.20;99.90
9790;DHT22;4934;50.852;8.098;2023-09-12T09:12:33;24.10;99.90
9790;DHT22;4934;50.852;8.098;2023-09-12T09:15:00;24.30;99.90
9790;DHT22;4934;50.852;8.098;2023-09-12T09:17:44;24.40;99.90
9790;DHT22;4934;50.852;8.098;2023-09-12T09:20:42;24.50;99.90
9790;DHT22;4934;50.852;8.098;2023-09-12T09:23:10;24.60;99.90
9790;DHT22;4934;50.852;8.098;2023-09-12T09:25:39;24.70;99.90
9790;DHT22;4934;50.852;8.098;2023-09-12T09:28:19;24.80;99.90
9790;DHT22;4934;50.852;8.098;2023-09-12T09:30:49;25.00;99.90
9790;DHT22;4934;50.852;8.098;2023-09-12T09:33:16;25.00;99.90
9790;DHT22;4934;50.852;8.098;2023-09-12T09:35:46;25.00;99.90
9790;DHT22;4934;50.852;8.098;2023-09-12T09:38:12;25.20;99.90
9790;DHT22;4934;50.852;8.098;2023-09-12T09:40:43;25.40;99.90
9790;DHT22;4934;50.852;8.098;2023-09-12T09:43:09;25.60;99.90
9790;DHT22;4934;50.852;8.098;2023-09-12T09:45:43;25.40;99.90
9790;DHT22;4934;50.852;8.098;2023-09-12T09:48:09;25.60;99.90
9790;DHT22;4934;50.852;8.098;2023-09-12T09:50:35;25.90;99.90
9790;DHT22;4934;50.852;8.098;2023-09-12T09:53:04;26.10;99.90
9790;DHT22;4934;50.852;8.098;2023-09-12T09:55:32;26.20;99.90
9790;DHT22;4934;50.852;8.098;2023-09-12T09:57:58;26.10;99.90
9790;DHT22;4934;50.852;8.098;2023-09-12T10:00:25;26.10;99.90
9790;DHT22;4934;50.852;8.098;2023-09-12T10:02:51;26.40;99.90
9790;DHT22;4934;50.852;8.098;2023-09-12T10:05:20;26.60;99.90
9790;DHT22;4934;50.852;8.098;2023-09-12T10:07:50;26.60;99.90
9790;DHT22;4934;50.852;8.098;2023-09-12T10:10:19;26.60;99.90
9790;DHT22;4934;50.852;8.098;2023-09-12T10:13:03;26.80;99.90
9790;DHT22;4934;50.852;8.098;2023-09-12T10:15:30;27.00;99.90
9790;DHT22;4934;50.852;8.098;2023-09-12T10:18:03;27.10;99.90
9790;DHT22;4934;50.852;8.098;2023-09-12T10:20:37;27.10;99.90
9790;DHT22;4934;50.852;8.098;2023-09-12T10:23:11;27.10;99.90
9790;DHT22;4934;50.852;8.098;2023-09-12T10:25:37;27.00;99.90
9790;DHT22;4934;50.852;8.098;2023-09-12T10:28:05;27.10;99.90
9790;DHT22;4934;50.852;8.098;2023-09-12T10:30:32;27.20;99.90
9790;DHT22;4934;50.852;8.098;2023-09-12T10:33:01;27.20;99.90
9790;DHT22;4934;50.852;8.098;2023-09-12T10:35:29;27.30;99.90
9790;DHT22;4934;50.852;8.098;2023-09-12T10:37:58;27.40;99.90
9790;DHT22;4934;50.852;8.098;2023-09-12T10:40:26;27.50;99.90
9790;DHT22;4934;50.852;8.098;2023-09-12T10:42:55;27.60;99.90
9790;DHT22;4934;50.852;8.098;2023-09-12T10:45:21;27.60;99.90
9790;DHT22;4934;50.852;8.098;2023-09-12T10:47:47;27.60;99.90
9790;DHT22;4934;50.852;8.098;2023-09-12T10:50:14;27.60;99.90
9790;DHT22;4934;50.852;8.098;2023-09-12T10:52:39;27.50;99.90
9790;DHT22;4934;50.852;8.098;2023-09-12T10:55:07;27.50;99.90
9790;DHT22;4934;50.852;8.098;2023-09-12T10:57:33;27.30;99.90
9790;DHT22;4934;50.852;8.098;2023-09-12T11:02:36;27.30;99.90
9790;DHT22;4934;50.852;8.098;2023-09-12T11:05:04;27.40;99.90
9790;DHT22;4934;50.852;8.098;2023-09-12T11:07:43;27.40;99.90
9790;DHT22;4934;50.852;8.098;2023-09-12T11:12:41;27.40;99.90
9790;DHT22;4934;50.852;8.098;2023-09-12T11:15:08;27.30;99.90
9790;DHT22;4934;50.852;8.098;2023-09-12T11:17:40;27.20;99.90
9790;DHT22;4934;50.852;8.098;2023-09-12T11:20:06;27.10;99.90
9790;DHT22;4934;50.852;8.098;2023-09-12T11:22:37;27.00;99.90
9790;DHT22;4934;50.852;8.098;2023-09-12T11:25:05;26.90;99.90
9790;DHT22;4934;50.852;8.098;2023-09-12T11:30:23;26.80;99.90
9790;DHT22;4934;50.852;8.098;2023-09-12T11:32:51;26.80;99.90
9790;DHT22;4934;50.852;8.098;2023-09-12T11:35:23;26.90;99.90
9790;DHT22;4934;50.852;8.098;2023-09-12T11:37:50;27.10;99.90
9790;DHT22;4934;50.852;8.098;2023-09-12T11:42:49;27.10;99.90
9790;DHT22;4934;50.852;8.098;2023-09-12T11:45:18;27.30;99.90
9790;DHT22;4934;50.852;8.098;2023-09-12T11:47:45;27.30;99.90
9790;DHT22;4934;50.852;8.098;2023-09-12T11:50:35;27.30;99.90
9790;DHT22;4934;50.852;8.098;2023-09-12T11:53:06;27.40;99.90
9790;DHT22;4934;50.852;8.098;2023-09-12T11:55:53;27.40;99.90
9790;DHT22;4934;50.852;8.098;2023-09-12T11:58:20;27.70;99.90
9790;DHT22;4934;50.852;8.098;2023-09-12T12:00:48;28.00;99.90
9790;DHT22;4934;50.852;8.098;2023-09-12T12:03:15;28.10;99.90
9790;DHT22;4934;50.852;8.098;2023-09-12T12:05:41;28.20;99.90
9790;DHT22;4934;50.852;8.098;2023-09-12T12:08:08;28.10;99.90
9790;DHT22;4934;50.852;8.098;2023-09-12T12:10:34;28.30;99.90
9790;DHT22;4934;50.852;8.098;2023-09-12T12:13:00;28.40;99.90
9790;DHT22;4934;50.852;8.098;2023-09-12T12:15:27;28.50;99.90
9790;DHT22;4934;50.852;8.098;2023-09-12T12:17:56;28.60;99.90
9790;DHT22;4934;50.852;8.098;2023-09-12T12:20:22;28.60;99.90
9790;DHT22;4934;50.852;8.098;2023-09-12T12:22:48;28.60;99.90
9790;DHT22;4934;50.852;8.098;2023-09-12T12:25:17;28.70;99.90
9790;DHT22;4934;50.852;8.098;2023-09-12T12:27:42;28.60;99.90
9790;DHT22;4934;50.852;8.098;2023-09-12T12:30:10;28.60;99.90
9790;DHT22;4934;50.852;8.098;2023-09-12T12:32:40;28.60;99.90
9790;DHT22;4934;50.852;8.098;2023-09-12T12:35:06;28.60;99.90
9790;DHT22;4934;50.852;8.098;2023-09-12T12:37:32;28.70;99.90
9790;DHT22;4934;50.852;8.098;2023-09-12T12:39:59;28.70;99.90
9790;DHT22;4934;50.852;8.098;2023-09-12T12:42:32;28.60;99.90
9790;DHT22;4934;50.852;8.098;2023-09-12T12:44:58;28.60;99.90
9790;DHT22;4934;50.852;8.098;2023-09-12T12:47:24;28.80;99.90
9790;DHT22;4934;50.852;8.098;2023-09-12T12:49:51;28.80;99.90
9790;DHT22;4934;50.852;8.098;2023-09-12T12:52:24;28.80;99.90
9790;DHT22;4934;50.852;8.098;2023-09-12T12:54:51;28.80;99.90
9790;DHT22;4934;50.852;8.098;2023-09-12T12:57:21;28.80;99.90
9790;DHT22;4934;50.852;8.098;2023-09-12T12:59:48;28.80;99.90
9790;DHT22;4934;50.852;8.098;2023-09-12T13:02:14;28.70;99.90
9790;DHT22;4934;50.852;8.098;2023-09-12T13:04:40;28.40;99.90
9790;DHT22;4934;50.852;8.098;2023-09-12T13:07:05;28.10;99.90
9790;DHT22;4934;50.852;8.098;2023-09-12T13:09:32;28.30;99.90
9790;DHT22;4934;50.852;8.098;2023-09-12T13:11:58;28.10;99.90
9790;DHT22;4934;50.852;8.098;2023-09-12T13:14:24;28.00;99.90
9790;DHT22;4934;50.852;8.098;2023-09-12T13:16:58;28.20;99.90
9790;DHT22;4934;50.852;8.098;2023-09-12T13:19:25;28.20;99.90
9790;DHT22;4934;50.852;8.098;2023-09-12T13:21:51;28.10;99.90
9790;DHT22;4934;50.852;8.098;2023-09-12T13:24:16;28.10;99.90
9790;DHT22;4934;50.852;8.098;2023-09-12T13:26:43;28.20;99.90
9790;DHT22;4934;50.852;8.098;2023-09-12T13:29:08;28.60;99.90
9790;DHT22;4934;50.852;8.098;2023-09-12T13:31:35;28.80;99.90
9790;DHT22;4934;50.852;8.098;2023-09-12T13:34:01;29.10;99.90
9790;DHT22;4934;50.852;8.098;2023-09-12T13:36:27;29.30;99.90
9790;DHT22;4934;50.852;8.098;2023-09-12T13:38:52;29.20;99.90
9790;DHT22;4934;50.852;8.098;2023-09-12T13:41:18;29.20;99.90
9790;DHT22;4934;50.852;8.098;2023-09-12T13:43:43;29.40;99.90
9790;DHT22;4934;50.852;8.098;2023-09-12T13:46:12;29.40;99.90
9790;DHT22;4934;50.852;8.098;2023-09-12T13:48:38;29.50;99.90
9790;DHT22;4934;50.852;8.098;2023-09-12T13:51:03;29.60;99.90
9790;DHT22;4934;50.852;8.098;2023-09-12T13:53:29;29.60;99.90
9790;DHT22;4934;50.852;8.098;2023-09-12T13:55:55;29.50;99.90
9790;DHT22;4934;50.852;8.098;2023-09-12T13:58:22;29.50;99.90
9790;DHT22;4934;50.852;8.098;2023-09-12T14:00:48;29.30;99.90
9790;DHT22;4934;50.852;8.098;2023-09-12T14:03:14;29.20;99.90
9790;DHT22;4934;50.852;8.098;2023-09-12T14:05:40;29.00;99.90
9790;DHT22;4934;50.852;8.098;2023-09-12T14:08:05;28.90;99.90
9790;DHT22;4934;50.852;8.098;2023-09-12T14:10:31;28.70;99.90
9790;DHT22;4934;50.852;8.098;2023-09-12T14:12:57;28.30;99.90
9790;DHT22;4934;50.852;8.098;2023-09-12T14:15:22;28.10;99.90
9790;DHT22;4934;50.852;8.098;2023-09-12T14:17:48;27.70;99.90
9790;DHT22;4934;50.852;8.098;2023-09-12T14:20:14;27.70;99.90
9790;DHT22;4934;50.852;8.098;2023-09-12T14:22:41;27.60;99.90
9790;DHT22;4934;50.852;8.098;2023-09-12T14:25:08;27.80;99.90
9790;DHT22;4934;50.852;8.098;2023-09-12T14:27:34;27.70;99.90
9790;DHT22;4934;50.852;8.098;2023-09-12T14:29:59;27.90;99.90
9790;DHT22;4934;50.852;8.098;2023-09-12T14:32:25;27.70;99.90
9790;DHT22;4934;50.852;8.098;2023-09-12T14:34:51;27.80;99.90
9790;DHT22;4934;50.852;8.098;2023-09-12T14:37:16;28.00;99.90
9790;DHT22;4934;50.852;8.098;2023-09-12T14:39:42;28.20;99.90
9790;DHT22;4934;50.852;8.098;2023-09-12T14:42:08;28.30;99.90
9790;DHT22;4934;50.852;8.098;2023-09-12T14:44:35;28.20;99.90
9790;DHT22;4934;50.852;8.098;2023-09-12T14:47:00;27.80;99.90
9790;DHT22;4934;50.852;8.098;2023-09-12T14:49:26;27.90;99.90
9790;DHT22;4934;50.852;8.098;2023-09-12T14:51:51;27.90;99.90
9790;DHT22;4934;50.852;8.098;2023-09-12T14:54:17;27.80;99.90
9790;DHT22;4934;50.852;8.098;2023-09-12T14:56:44;27.90;99.90
9790;DHT22;4934;50.852;8.098;2023-09-12T14:59:09;27.60;99.90
9790;DHT22;4934;50.852;8.098;2023-09-12T15:01:36;27.70;99.90
9790;DHT22;4934;50.852;8.098;2023-09-12T15:04:01;27.80;99.90
9790;DHT22;4934;50.852;8.098;2023-09-12T15:06:27;27.70;99.90
9790;DHT22;4934;50.852;8.098;2023-09-12T15:08:53;27.80;99.90
9790;DHT22;4934;50.852;8.098;2023-09-12T15:11:19;27.30;99.90
9790;DHT22;4934;50.852;8.098;2023-09-12T15:13:44;27.40;99.90
9790;DHT22;4934;50.852;8.098;2023-09-12T15:16:11;27.10;99.90
9790;DHT22;4934;50.852;8.098;2023-09-12T15:18:37;27.20;99.90
9790;DHT22;4934;50.852;8.098;2023-09-12T15:21:06;27.10;99.90
9790;DHT22;4934;50.852;8.098;2023-09-12T15:23:32;26.80;99.90
9790;DHT22;4934;50.852;8.098;2023-09-12T15:25:57;26.70;99.90
9790;DHT22;4934;50.852;8.098;2023-09-12T15:28:23;26.60;99.90
9790;DHT22;4934;50.852;8.098;2023-09-12T15:30:48;26.60;99.90
9790;DHT22;4934;50.852;8.098;2023-09-12T15:33:14;26.80;99.90
9790;DHT22;4934;50.852;8.098;2023-09-12T15:35:40;26.80;99.90
9790;DHT22;4934;50.852;8.098;2023-09-12T15:38:05;26.90;99.90
9790;DHT22;4934;50.852;8.098;2023-09-12T15:40:32;26.30;99.90
9790;DHT22;4934;50.852;8.098;2023-09-12T15:42:58;26.50;99.90
9790;DHT22;4934;50.852;8.098;2023-09-12T15:45:23;26.50;99.90
9790;DHT22;4934;50.852;8.098;2023-09-12T15:47:49;26.70;99.90
9790;DHT22;4934;50.852;8.098;2023-09-12T15:50:15;26.80;99.90
9790;DHT22;4934;50.852;8.098;2023-09-12T15:52:40;26.80;99.90
9790;DHT22;4934;50.852;8.098;2023-09-12T15:55:09;26.90;99.90
9790;DHT22;4934;50.852;8.098;2023-09-12T15:57:35;26.80;99.90
9790;DHT22;4934;50.852;8.098;2023-09-12T16:00:04;26.80;99.90
9790;DHT22;4934;50.852;8.098;2023-09-12T16:02:32;26.70;99.90
9790;DHT22;4934;50.852;8.098;2023-09-12T16:04:59;26.30;99.90
9790;DHT22;4934;50.852;8.098;2023-09-12T16:07:24;26.50;99.90
9790;DHT22;4934;50.852;8.098;2023-09-12T16:09:50;26.50;99.90
9790;DHT22;4934;50.852;8.098;2023-09-12T16:12:15;26.50;99.90
9790;DHT22;4934;50.852;8.098;2023-09-12T16:14:41;26.50;99.90